sensor_id;sensor_type;location;lat;lon;timestamp;P1;durP1;ratioP1;P2;durP2;ratioP2
20026;SDS011;10174;42.688;23.344;2023-05-07T00:01:02;33.92;;;15.93;;
20026;SDS011;10174;42.688;23.344;2023-05-07T00:03:27;30.40;;;17.35;;
20026;SDS011;10174;42.688;23.344;2023-05-07T00:05:53;39.40;;;19.27;;
20026;SDS011;10174;42.688;23.344;2023-05-07T00:08:19;37.28;;;18.73;;
20026;SDS011;10174;42.688;23.344;2023-05-07T00:10:45;37.50;;;19.25;;
20026;SDS011;10174;42.688;23.344;2023-05-07T00:13:11;42.28;;;18.73;;
20026;SDS011;10174;42.688;23.344;2023-05-07T00:15:36;34.58;;;18.58;;
20026;SDS011;10174;42.688;23.344;2023-05-07T00:18:02;39.10;;;18.55;;
20026;SDS011;10174;42.688;23.344;2023-05-07T00:20:27;36.05;;;19.75;;
20026;SDS011;10174;42.688;23.344;2023-05-07T00:22:53;40.05;;;20.08;;
20026;SDS011;10174;42.688;23.344;2023-05-07T00:25:18;42.92;;;20.50;;
20026;SDS011;10174;42.688;23.344;2023-05-07T00:27:44;39.95;;;20.20;;
20026;SDS011;10174;42.688;23.344;2023-05-07T00:30:10;40.97;;;19.98;;
20026;SDS011;10174;42.688;23.344;2023-05-07T00:32:36;52.35;;;21.75;;
20026;SDS011;10174;42.688;23.344;2023-05-07T00:35:02;43.50;;;21.00;;
20026;SDS011;10174;42.688;23.344;2023-05-07T00:37:28;40.55;;;20.35;;
20026;SDS011;10174;42.688;23.344;2023-05-07T00:39:53;55.10;;;22.45;;
20026;SDS011;10174;42.688;23.344;2023-05-07T00:42:19;51.42;;;21.98;;
20026;SDS011;10174;42.688;23.344;2023-05-07T00:44:44;43.58;;;21.13;;
20026;SDS011;10174;42.688;23.344;2023-05-07T00:47:10;36.13;;;20.80;;
20026;SDS011;10174;42.688;23.344;2023-05-07T00:49:41;35.75;;;20.38;;
20026;SDS011;10174;42.688;23.344;2023-05-07T00:52:08;39.45;;;20.35;;
20026;SDS011;10174;42.688;23.344;2023-05-07T00:54:36;40.72;;;20.67;;
20026;SDS011;10174;42.688;23.344;2023-05-07T00:57:02;43.10;;;20.20;;
20026;SDS011;10174;42.688;23.344;2023-05-07T00:59:31;42.67;;;20.98;;
20026;SDS011;10174;42.688;23.344;2023-05-07T01:01:58;45.88;;;20.77;;
20026;SDS011;10174;42.688;23.344;2023-05-07T01:04:24;42.33;;;21.42;;
20026;SDS011;10174;42.688;23.344;2023-05-07T01:06:49;39.88;;;20.33;;
20026;SDS011;10174;42.688;23.344;2023-05-07T01:09:16;44.58;;;20.08;;
20026;SDS011;10174;42.688;23.344;2023-05-07T01:11:42;45.92;;;21.58;;
20026;SDS011;10174;42.688;23.344;2023-05-07T01:14:08;41.85;;;20.63;;
20026;SDS011;10174;42.688;23.344;2023-05-07T01:16:35;36.50;;;19.77;;
20026;SDS011;10174;42.688;23.344;2023-05-07T01:19:01;49.78;;;21.50;;
20026;SDS011;10174;42.688;23.344;2023-05-07T01:21:27;37.63;;;20.60;;
20026;SDS011;10174;42.688;23.344;2023-05-07T01:23:58;43.70;;;20.00;;
20026;SDS011;10174;42.688;23.344;2023-05-07T01:26:24;33.90;;;19.92;;
20026;SDS011;10174;42.688;23.344;2023-05-07T01:28:49;32.95;;;19.48;;
20026;SDS011;10174;42.688;23.344;2023-05-07T01:31:15;37.60;;;20.58;;
20026;SDS011;10174;42.688;23.344;2023-05-07T01:33:42;40.92;;;20.75;;
20026;SDS011;10174;42.688;23.344;2023-05-07T01:36:10;35.67;;;19.45;;
20026;SDS011;10174;42.688;23.344;2023-05-07T01:38:37;34.28;;;19.08;;
20026;SDS011;10174;42.688;23.344;2023-05-07T01:41:04;44.30;;;20.40;;
20026;SDS011;10174;42.688;23.344;2023-05-07T01:43:29;36.00;;;19.23;;
20026;SDS011;10174;42.688;23.344;2023-05-07T01:45:55;50.38;;;20.10;;
20026;SDS011;10174;42.688;23.344;2023-05-07T01:48:22;45.38;;;20.52;;
20026;SDS011;10174;42.688;23.344;2023-05-07T01:50:49;40.33;;;19.67;;
20026;SDS011;10174;42.688;23.344;2023-05-07T01:53:16;44.33;;;20.38;;
20026;SDS011;10174;42.688;23.344;2023-05-07T01:55:41;33.13;;;18.00;;
20026;SDS011;10174;42.688;23.344;2023-05-07T01:58:07;35.08;;;17.50;;
20026;SDS011;10174;42.688;23.344;2023-05-07T02:00:32;33.47;;;16.88;;
20026;SDS011;10174;42.688;23.344;2023-05-07T02:02:57;31.85;;;16.40;;
20026;SDS011;10174;42.688;23.344;2023-05-07T02:05:23;29.95;;;16.45;;
20026;SDS011;10174;42.688;23.344;2023-05-07T02:07:48;30.08;;;15.25;;
20026;SDS011;10174;42.688;23.344;2023-05-07T02:10:14;20.58;;;12.82;;
20026;SDS011;10174;42.688;23.344;2023-05-07T02:12:39;21.13;;;12.55;;
20026;SDS011;10174;42.688;23.344;2023-05-07T02:15:05;19.50;;;11.43;;
20026;SDS011;10174;42.688;23.344;2023-05-07T02:17:31;24.58;;;13.65;;
20026;SDS011;10174;42.688;23.344;2023-05-07T02:19:58;33.15;;;12.95;;
20026;SDS011;10174;42.688;23.344;2023-05-07T02:22:23;27.30;;;12.48;;
20026;SDS011;10174;42.688;23.344;2023-05-07T02:24:48;24.95;;;12.15;;
20026;SDS011;10174;42.688;23.344;2023-05-07T02:27:14;22.45;;;12.73;;
20026;SDS011;10174;42.688;23.344;2023-05-07T02:29:40;21.17;;;12.57;;
20026;SDS011;10174;42.688;23.344;2023-05-07T02:32:05;20.35;;;11.88;;
20026;SDS011;10174;42.688;23.344;2023-05-07T02:34:30;33.80;;;13.77;;
20026;SDS011;10174;42.688;23.344;2023-05-07T02:36:56;27.70;;;13.70;;
20026;SDS011;10174;42.688;23.344;2023-05-07T02:39:21;24.58;;;12.55;;
20026;SDS011;10174;42.688;23.344;2023-05-07T02:41:47;31.38;;;12.38;;
20026;SDS011;10174;42.688;23.344;2023-05-07T02:44:12;26.55;;;13.27;;
20026;SDS011;10174;42.688;23.344;2023-05-07T02:46:37;28.13;;;14.00;;
20026;SDS011;10174;42.688;23.344;2023-05-07T02:49:03;35.97;;;15.40;;
20026;SDS011;10174;42.688;23.344;2023-05-07T02:51:29;35.08;;;15.70;;
20026;SDS011;10174;42.688;23.344;2023-05-07T02:53:55;30.88;;;15.73;;
20026;SDS011;10174;42.688;23.344;2023-05-07T02:56:21;28.77;;;17.75;;
20026;SDS011;10174;42.688;23.344;2023-05-07T02:58:46;37.53;;;17.05;;
20026;SDS011;10174;42.688;23.344;2023-05-07T03:01:12;34.17;;;17.33;;
20026;SDS011;10174;42.688;23.344;2023-05-07T03:03:39;32.50;;;17.05;;
20026;SDS011;10174;42.688;23.344;2023-05-07T03:06:04;36.65;;;15.98;;
20026;SDS011;10174;42.688;23.344;2023-05-07T03:08:30;32.25;;;16.92;;
20026;SDS011;10174;42.688;23.344;2023-05-07T03:10:55;32.45;;;17.73;;
20026;SDS011;10174;42.688;23.344;2023-05-07T03:13:20;31.63;;;16.92;;
20026;SDS011;10174;42.688;23.344;2023-05-07T03:15:46;33.80;;;16.88;;
20026;SDS011;10174;42.688;23.344;2023-05-07T03:18:11;33.40;;;16.30;;
20026;SDS011;10174;42.688;23.344;2023-05-07T03:20:36;32.72;;;17.73;;
20026;SDS011;10174;42.688;23.344;2023-05-07T03:23:02;42.47;;;18.23;;
20026;SDS011;10174;42.688;23.344;2023-05-07T03:25:28;42.50;;;19.92;;
20026;SDS011;10174;42.688;23.344;2023-05-07T03:27:55;35.40;;;18.20;;
20026;SDS011;10174;42.688;23.344;2023-05-07T03:30:20;37.72;;;17.80;;
20026;SDS011;10174;42.688;23.344;2023-05-07T03:32:46;32.13;;;18.40;;
20026;SDS011;10174;42.688;23.344;2023-05-07T03:35:11;39.35;;;18.77;;
20026;SDS011;10174;42.688;23.344;2023-05-07T03:37:37;33.35;;;18.95;;
20026;SDS011;10174;42.688;23.344;2023-05-07T03:40:04;43.25;;;18.75;;
20026;SDS011;10174;42.688;23.344;2023-05-07T03:42:30;32.17;;;17.45;;
20026;SDS011;10174;42.688;23.344;2023-05-07T03:44:55;33.17;;;17.38;;
20026;SDS011;10174;42.688;23.344;2023-05-07T03:47:21;29.95;;;18.65;;
20026;SDS011;10174;42.688;23.344;2023-05-07T03:49:46;30.00;;;19.40;;
20026;SDS011;10174;42.688;23.344;2023-05-07T03:52:13;37.67;;;18.58;;
20026;SDS011;10174;42.688;23.344;2023-05-07T03:54:38;39.08;;;19.65;;
20026;SDS011;10174;42.688;23.344;2023-05-07T03:57:04;37.63;;;19.10;;
20026;SDS011;10174;42.688;23.344;2023-05-07T03:59:29;40.05;;;20.77;;
20026;SDS011;10174;42.688;23.344;2023-05-07T04:01:54;53.35;;;19.20;;
20026;SDS011;10174;42.688;23.344;2023-05-07T04:04:20;30.73;;;18.23;;
20026;SDS011;10174;42.688;23.344;2023-05-07T04:06:46;43.63;;;19.55;;
20026;SDS011;10174;42.688;23.344;2023-05-07T04:09:11;41.08;;;19.05;;
20026;SDS011;10174;42.688;23.344;2023-05-07T04:11:36;35.45;;;19.08;;
20026;SDS011;10174;42.688;23.344;2023-05-07T04:14:02;43.72;;;19.38;;
20026;SDS011;10174;42.688;23.344;2023-05-07T04:16:27;41.92;;;20.92;;
20026;SDS011;10174;42.688;23.344;2023-05-07T04:18:53;42.92;;;20.05;;
20026;SDS011;10174;42.688;23.344;2023-05-07T04:21:19;42.25;;;18.73;;
20026;SDS011;10174;42.688;23.344;2023-05-07T04:23:46;32.40;;;18.67;;
20026;SDS011;10174;42.688;23.344;2023-05-07T04:26:12;45.13;;;19.02;;
20026;SDS011;10174;42.688;23.344;2023-05-07T04:28:38;35.05;;;19.75;;
20026;SDS011;10174;42.688;23.344;2023-05-07T04:31:04;44.47;;;19.17;;
20026;SDS011;10174;42.688;23.344;2023-05-07T04:33:30;34.83;;;19.35;;
20026;SDS011;10174;42.688;23.344;2023-05-07T04:35:56;33.78;;;18.48;;
20026;SDS011;10174;42.688;23.344;2023-05-07T04:38:21;33.45;;;18.38;;
20026;SDS011;10174;42.688;23.344;2023-05-07T04:40:48;29.70;;;18.00;;
20026;SDS011;10174;42.688;23.344;2023-05-07T04:43:14;34.15;;;18.15;;
20026;SDS011;10174;42.688;23.344;2023-05-07T04:45:39;32.45;;;18.42;;
20026;SDS011;10174;42.688;23.344;2023-05-07T04:48:06;32.20;;;17.45;;
20026;SDS011;10174;42.688;23.344;2023-05-07T04:50:32;35.25;;;19.75;;
20026;SDS011;10174;42.688;23.344;2023-05-07T04:52:57;40.47;;;18.33;;
20026;SDS011;10174;42.688;23.344;2023-05-07T04:55:23;37.47;;;18.80;;
20026;SDS011;10174;42.688;23.344;2023-05-07T04:57:48;29.42;;;18.80;;
20026;SDS011;10174;42.688;23.344;2023-05-07T05:00:14;39.92;;;17.48;;
20026;SDS011;10174;42.688;23.344;2023-05-07T05:02:40;36.28;;;18.10;;
20026;SDS011;10174;42.688;23.344;2023-05-07T05:05:06;34.00;;;18.73;;
20026;SDS011;10174;42.688;23.344;2023-05-07T05:07:32;31.90;;;18.60;;
20026;SDS011;10174;42.688;23.344;2023-05-07T05:09:57;33.03;;;18.67;;
20026;SDS011;10174;42.688;23.344;2023-05-07T05:12:23;30.25;;;18.10;;
20026;SDS011;10174;42.688;23.344;2023-05-07T05:14:48;31.70;;;18.45;;
20026;SDS011;10174;42.688;23.344;2023-05-07T05:17:14;34.83;;;18.73;;
20026;SDS011;10174;42.688;23.344;2023-05-07T05:19:39;33.33;;;19.15;;
20026;SDS011;10174;42.688;23.344;2023-05-07T05:22:04;32.08;;;18.30;;
20026;SDS011;10174;42.688;23.344;2023-05-07T05:24:30;34.35;;;19.25;;
20026;SDS011;10174;42.688;23.344;2023-05-07T05:26:56;33.25;;;18.13;;
20026;SDS011;10174;42.688;23.344;2023-05-07T05:29:21;28.73;;;17.40;;
20026;SDS011;10174;42.688;23.344;2023-05-07T05:31:47;34.25;;;18.48;;
20026;SDS011;10174;42.688;23.344;2023-05-07T05:34:13;31.75;;;18.45;;
20026;SDS011;10174;42.688;23.344;2023-05-07T05:36:38;30.85;;;19.17;;
20026;SDS011;10174;42.688;23.344;2023-05-07T05:39:03;30.73;;;18.65;;
20026;SDS011;10174;42.688;23.344;2023-05-07T05:41:29;32.05;;;18.38;;
20026;SDS011;10174;42.688;23.344;2023-05-07T05:43:55;34.25;;;19.17;;
20026;SDS011;10174;42.688;23.344;2023-05-07T05:46:20;33.95;;;18.65;;
20026;SDS011;10174;42.688;23.344;2023-05-07T05:48:46;32.10;;;18.83;;
20026;SDS011;10174;42.688;23.344;2023-05-07T05:51:11;29.80;;;18.50;;
20026;SDS011;10174;42.688;23.344;2023-05-07T05:53:37;31.70;;;18.83;;
20026;SDS011;10174;42.688;23.344;2023-05-07T05:56:02;31.00;;;18.13;;
20026;SDS011;10174;42.688;23.344;2023-05-07T05:58:28;29.20;;;17.88;;
20026;SDS011;10174;42.688;23.344;2023-05-07T06:00:53;37.42;;;18.80;;
20026;SDS011;10174;42.688;23.344;2023-05-07T06:03:19;37.28;;;19.30;;
20026;SDS011;10174;42.688;23.344;2023-05-07T06:05:44;31.15;;;17.92;;
20026;SDS011;10174;42.688;23.344;2023-05-07T06:08:10;30.55;;;18.35;;
20026;SDS011;10174;42.688;23.344;2023-05-07T06:10:36;33.67;;;18.00;;
20026;SDS011;10174;42.688;23.344;2023-05-07T06:13:02;28.45;;;17.77;;
20026;SDS011;10174;42.688;23.344;2023-05-07T06:15:27;28.63;;;18.42;;
20026;SDS011;10174;42.688;23.344;2023-05-07T06:17:53;26.73;;;16.83;;
20026;SDS011;10174;42.688;23.344;2023-05-07T06:20:20;30.40;;;17.52;;
20026;SDS011;10174;42.688;23.344;2023-05-07T06:22:46;28.92;;;17.02;;
20026;SDS011;10174;42.688;23.344;2023-05-07T06:25:11;30.05;;;16.60;;
20026;SDS011;10174;42.688;23.344;2023-05-07T06:27:36;31.42;;;17.35;;
20026;SDS011;10174;42.688;23.344;2023-05-07T06:30:02;25.15;;;16.05;;
20026;SDS011;10174;42.688;23.344;2023-05-07T06:32:28;25.38;;;15.60;;
20026;SDS011;10174;42.688;23.344;2023-05-07T06:34:53;27.20;;;14.68;;
20026;SDS011;10174;42.688;23.344;2023-05-07T06:37:18;25.88;;;15.60;;
20026;SDS011;10174;42.688;23.344;2023-05-07T06:39:44;28.40;;;15.57;;
20026;SDS011;10174;42.688;23.344;2023-05-07T06:42:09;23.73;;;15.27;;
20026;SDS011;10174;42.688;23.344;2023-05-07T06:44:35;30.95;;;16.90;;
20026;SDS011;10174;42.688;23.344;2023-05-07T06:47:00;27.38;;;16.88;;
20026;SDS011;10174;42.688;23.344;2023-05-07T06:49:26;30.50;;;16.58;;
20026;SDS011;10174;42.688;23.344;2023-05-07T06:51:51;28.20;;;16.52;;
20026;SDS011;10174;42.688;23.344;2023-05-07T06:54:17;27.25;;;16.85;;
20026;SDS011;10174;42.688;23.344;2023-05-07T06:56:42;27.92;;;16.05;;
20026;SDS011;10174;42.688;23.344;2023-05-07T06:59:07;26.13;;;17.05;;
20026;SDS011;10174;42.688;23.344;2023-05-07T07:01:33;31.35;;;17.35;;
20026;SDS011;10174;42.688;23.344;2023-05-07T07:03:58;27.48;;;16.70;;
20026;SDS011;10174;42.688;23.344;2023-05-07T07:06:23;25.38;;;16.98;;
20026;SDS011;10174;42.688;23.344;2023-05-07T07:08:49;28.92;;;16.65;;
20026;SDS011;10174;42.688;23.344;2023-05-07T07:11:14;28.25;;;15.75;;
20026;SDS011;10174;42.688;23.344;2023-05-07T07:13:40;25.98;;;15.13;;
20026;SDS011;10174;42.688;23.344;2023-05-07T07:16:06;30.83;;;16.52;;
20026;SDS011;10174;42.688;23.344;2023-05-07T07:18:31;27.48;;;15.73;;
20026;SDS011;10174;42.688;23.344;2023-05-07T07:20:56;20.88;;;14.50;;
20026;SDS011;10174;42.688;23.344;2023-05-07T07:23:22;27.45;;;16.23;;
20026;SDS011;10174;42.688;23.344;2023-05-07T07:25:47;30.92;;;16.55;;
20026;SDS011;10174;42.688;23.344;2023-05-07T07:28:13;27.05;;;16.55;;
20026;SDS011;10174;42.688;23.344;2023-05-07T07:30:38;27.42;;;16.27;;
20026;SDS011;10174;42.688;23.344;2023-05-07T07:33:04;25.13;;;14.70;;
20026;SDS011;10174;42.688;23.344;2023-05-07T07:35:30;25.38;;;15.43;;
20026;SDS011;10174;42.688;23.344;2023-05-07T07:37:58;24.77;;;14.05;;
20026;SDS011;10174;42.688;23.344;2023-05-07T07:40:24;22.50;;;14.25;;
20026;SDS011;10174;42.688;23.344;2023-05-07T07:42:50;28.88;;;14.82;;
20026;SDS011;10174;42.688;23.344;2023-05-07T07:45:15;25.35;;;14.27;;
20026;SDS011;10174;42.688;23.344;2023-05-07T07:47:41;26.35;;;14.88;;
20026;SDS011;10174;42.688;23.344;2023-05-07T07:50:06;22.35;;;14.73;;
20026;SDS011;10174;42.688;23.344;2023-05-07T07:52:32;25.50;;;13.85;;
20026;SDS011;10174;42.688;23.344;2023-05-07T07:54:58;21.92;;;14.13;;
20026;SDS011;10174;42.688;23.344;2023-05-07T07:57:24;21.35;;;14.27;;
20026;SDS011;10174;42.688;23.344;2023-05-07T07:59:50;21.85;;;13.98;;
20026;SDS011;10174;42.688;23.344;2023-05-07T08:02:16;23.83;;;14.82;;
20026;SDS011;10174;42.688;23.344;2023-05-07T08:04:42;22.17;;;13.27;;
20026;SDS011;10174;42.688;23.344;2023-05-07T08:07:08;24.35;;;13.88;;
20026;SDS011;10174;42.688;23.344;2023-05-07T08:09:34;23.58;;;13.52;;
20026;SDS011;10174;42.688;23.344;2023-05-07T08:12:00;21.42;;;12.63;;
20026;SDS011;10174;42.688;23.344;2023-05-07T08:14:26;23.58;;;11.70;;
20026;SDS011;10174;42.688;23.344;2023-05-07T08:16:53;21.08;;;11.98;;
20026;SDS011;10174;42.688;23.344;2023-05-07T08:19:19;21.25;;;12.55;;
20026;SDS011;10174;42.688;23.344;2023-05-07T08:21:44;18.48;;;11.88;;
20026;SDS011;10174;42.688;23.344;2023-05-07T08:24:12;17.83;;;12.48;;
20026;SDS011;10174;42.688;23.344;2023-05-07T08:26:38;18.70;;;11.85;;
20026;SDS011;10174;42.688;23.344;2023-05-07T08:29:04;20.33;;;11.63;;
20026;SDS011;10174;42.688;23.344;2023-05-07T08:31:29;22.23;;;11.00;;
20026;SDS011;10174;42.688;23.344;2023-05-07T08:33:55;15.93;;;10.27;;
20026;SDS011;10174;42.688;23.344;2023-05-07T08:36:21;20.27;;;9.75;;
20026;SDS011;10174;42.688;23.344;2023-05-07T08:38:46;19.25;;;9.82;;
20026;SDS011;10174;42.688;23.344;2023-05-07T08:41:11;16.45;;;9.25;;
20026;SDS011;10174;42.688;23.344;2023-05-07T08:43:37;14.93;;;10.00;;
20026;SDS011;10174;42.688;23.344;2023-05-07T08:46:05;16.52;;;8.90;;
20026;SDS011;10174;42.688;23.344;2023-05-07T08:48:33;19.70;;;9.25;;
20026;SDS011;10174;42.688;23.344;2023-05-07T08:50:59;37.03;;;23.98;;
20026;SDS011;10174;42.688;23.344;2023-05-07T08:53:25;11.63;;;7.95;;
20026;SDS011;10174;42.688;23.344;2023-05-07T08:55:50;13.40;;;6.60;;
20026;SDS011;10174;42.688;23.344;2023-05-07T08:58:16;17.80;;;6.50;;
20026;SDS011;10174;42.688;23.344;2023-05-07T09:00:41;15.73;;;5.85;;
20026;SDS011;10174;42.688;23.344;2023-05-07T09:03:07;12.73;;;6.20;;
20026;SDS011;10174;42.688;23.344;2023-05-07T09:05:32;11.98;;;7.20;;
20026;SDS011;10174;42.688;23.344;2023-05-07T09:08:04;10.93;;;6.93;;
20026;SDS011;10174;42.688;23.344;2023-05-07T09:10:32;18.42;;;7.15;;
20026;SDS011;10174;42.688;23.344;2023-05-07T09:12:58;17.92;;;6.35;;
20026;SDS011;10174;42.688;23.344;2023-05-07T09:15:24;8.65;;;5.78;;
20026;SDS011;10174;42.688;23.344;2023-05-07T09:17:50;11.07;;;5.78;;
20026;SDS011;10174;42.688;23.344;2023-05-07T09:20:15;15.10;;;6.72;;
20026;SDS011;10174;42.688;23.344;2023-05-07T09:22:41;9.90;;;5.93;;
20026;SDS011;10174;42.688;23.344;2023-05-07T09:25:07;8.05;;;5.32;;
20026;SDS011;10174;42.688;23.344;2023-05-07T09:27:34;12.25;;;5.82;;
20026;SDS011;10174;42.688;23.344;2023-05-07T09:30:02;8.27;;;5.15;;
20026;SDS011;10174;42.688;23.344;2023-05-07T09:32:28;8.73;;;5.28;;
20026;SDS011;10174;42.688;23.344;2023-05-07T09:34:55;10.25;;;5.55;;
20026;SDS011;10174;42.688;23.344;2023-05-07T09:37:21;11.63;;;5.40;;
20026;SDS011;10174;42.688;23.344;2023-05-07T09:39:48;10.48;;;5.57;;
20026;SDS011;10174;42.688;23.344;2023-05-07T09:42:14;10.45;;;5.57;;
20026;SDS011;10174;42.688;23.344;2023-05-07T09:44:40;10.27;;;5.72;;
20026;SDS011;10174;42.688;23.344;2023-05-07T09:47:07;11.63;;;5.00;;
20026;SDS011;10174;42.688;23.344;2023-05-07T09:49:36;7.55;;;4.70;;
20026;SDS011;10174;42.688;23.344;2023-05-07T09:52:04;15.23;;;5.30;;
20026;SDS011;10174;42.688;23.344;2023-05-07T09:54:34;13.13;;;5.13;;
20026;SDS011;10174;42.688;23.344;2023-05-07T09:57:03;14.30;;;5.28;;
20026;SDS011;10174;42.688;23.344;2023-05-07T09:59:30;9.52;;;4.80;;
20026;SDS011;10174;42.688;23.344;2023-05-07T10:01:57;9.13;;;4.15;;
20026;SDS011;10174;42.688;23.344;2023-05-07T10:04:27;8.23;;;4.05;;
20026;SDS011;10174;42.688;23.344;2023-05-07T10:06:53;6.28;;;3.50;;
20026;SDS011;10174;42.688;23.344;2023-05-07T10:09:20;5.45;;;3.95;;
20026;SDS011;10174;42.688;23.344;2023-05-07T10:11:48;12.45;;;5.20;;
20026;SDS011;10174;42.688;23.344;2023-05-07T10:14:14;8.57;;;4.93;;
20026;SDS011;10174;42.688;23.344;2023-05-07T10:16:40;10.18;;;4.40;;
20026;SDS011;10174;42.688;23.344;2023-05-07T10:19:06;6.72;;;3.42;;
20026;SDS011;10174;42.688;23.344;2023-05-07T10:21:38;6.07;;;3.42;;
20026;SDS011;10174;42.688;23.344;2023-05-07T10:24:16;7.80;;;3.42;;
20026;SDS011;10174;42.688;23.344;2023-05-07T10:26:47;10.70;;;4.32;;
20026;SDS011;10174;42.688;23.344;2023-05-07T10:35:14;5.38;;;4.03;;
20026;SDS011;10174;42.688;23.344;2023-05-07T10:37:42;16.13;;;8.23;;
20026;SDS011;10174;42.688;23.344;2023-05-07T10:40:09;7.93;;;3.80;;
20026;SDS011;10174;42.688;23.344;2023-05-07T10:42:35;6.78;;;3.60;;
20026;SDS011;10174;42.688;23.344;2023-05-07T10:45:13;5.13;;;3.30;;
20026;SDS011;10174;42.688;23.344;2023-05-07T10:50:43;9.30;;;4.00;;
20026;SDS011;10174;42.688;23.344;2023-05-07T10:55:42;8.70;;;4.30;;
20026;SDS011;10174;42.688;23.344;2023-05-07T10:58:28;5.32;;;3.92;;
20026;SDS011;10174;42.688;23.344;2023-05-07T11:00:57;14.45;;;3.97;;
20026;SDS011;10174;42.688;23.344;2023-05-07T11:03:23;8.23;;;3.60;;
20026;SDS011;10174;42.688;23.344;2023-05-07T11:06:11;6.40;;;4.00;;
20026;SDS011;10174;42.688;23.344;2023-05-07T11:11:43;9.43;;;4.40;;
20026;SDS011;10174;42.688;23.344;2023-05-07T11:14:09;10.25;;;4.85;;
20026;SDS011;10174;42.688;23.344;2023-05-07T11:16:34;7.43;;;3.90;;
20026;SDS011;10174;42.688;23.344;2023-05-07T11:19:01;7.93;;;4.82;;
20026;SDS011;10174;42.688;23.344;2023-05-07T11:23:58;9.50;;;3.95;;
20026;SDS011;10174;42.688;23.344;2023-05-07T11:26:25;11.95;;;3.63;;
20026;SDS011;10174;42.688;23.344;2023-05-07T11:28:51;10.60;;;4.00;;
20026;SDS011;10174;42.688;23.344;2023-05-07T11:31:27;11.35;;;4.00;;
20026;SDS011;10174;42.688;23.344;2023-05-07T11:33:54;8.25;;;4.30;;
20026;SDS011;10174;42.688;23.344;2023-05-07T11:36:21;10.45;;;4.05;;
20026;SDS011;10174;42.688;23.344;2023-05-07T11:38:48;6.03;;;3.90;;
20026;SDS011;10174;42.688;23.344;2023-05-07T11:41:15;5.70;;;3.90;;
20026;SDS011;10174;42.688;23.344;2023-05-07T11:43:57;8.45;;;4.32;;
20026;SDS011;10174;42.688;23.344;2023-05-07T11:46:23;9.93;;;4.25;;
20026;SDS011;10174;42.688;23.344;2023-05-07T11:48:49;9.35;;;4.13;;
20026;SDS011;10174;42.688;23.344;2023-05-07T11:51:18;8.32;;;4.45;;
20026;SDS011;10174;42.688;23.344;2023-05-07T11:53:45;9.68;;;4.03;;
20026;SDS011;10174;42.688;23.344;2023-05-07T11:56:14;6.25;;;3.88;;
20026;SDS011;10174;42.688;23.344;2023-05-07T11:58:43;13.85;;;3.92;;
20026;SDS011;10174;42.688;23.344;2023-05-07T12:01:11;6.80;;;3.90;;
20026;SDS011;10174;42.688;23.344;2023-05-07T12:03:39;9.27;;;4.63;;
20026;SDS011;10174;42.688;23.344;2023-05-07T12:06:07;7.07;;;4.00;;
20026;SDS011;10174;42.688;23.344;2023-05-07T12:08:35;10.85;;;6.00;;
20026;SDS011;10174;42.688;23.344;2023-05-07T12:11:02;10.60;;;4.50;;
20026;SDS011;10174;42.688;23.344;2023-05-07T12:13:27;7.50;;;3.97;;
20026;SDS011;10174;42.688;23.344;2023-05-07T12:15:53;10.35;;;4.30;;
20026;SDS011;10174;42.688;23.344;2023-05-07T12:18:20;6.95;;;3.75;;
20026;SDS011;10174;42.688;23.344;2023-05-07T12:20:47;10.13;;;3.92;;
20026;SDS011;10174;42.688;23.344;2023-05-07T12:23:13;7.55;;;3.92;;
20026;SDS011;10174;42.688;23.344;2023-05-07T12:25:39;6.18;;;3.70;;
20026;SDS011;10174;42.688;23.344;2023-05-07T12:28:08;9.23;;;4.20;;
20026;SDS011;10174;42.688;23.344;2023-05-07T12:30:38;13.90;;;5.93;;
20026;SDS011;10174;42.688;23.344;2023-05-07T12:33:05;6.72;;;3.85;;
20026;SDS011;10174;42.688;23.344;2023-05-07T12:35:31;7.82;;;3.60;;
20026;SDS011;10174;42.688;23.344;2023-05-07T12:38:01;5.85;;;3.05;;
20026;SDS011;10174;42.688;23.344;2023-05-07T12:40:39;3.97;;;2.92;;
20026;SDS011;10174;42.688;23.344;2023-05-07T12:43:06;5.13;;;2.90;;
20026;SDS011;10174;42.688;23.344;2023-05-07T12:45:34;5.45;;;3.00;;
20026;SDS011;10174;42.688;23.344;2023-05-07T12:48:03;7.97;;;3.30;;
20026;SDS011;10174;42.688;23.344;2023-05-07T12:50:32;5.90;;;3.50;;
20026;SDS011;10174;42.688;23.344;2023-05-07T12:52:58;12.50;;;6.28;;
20026;SDS011;10174;42.688;23.344;2023-05-07T12:55:24;7.70;;;3.45;;
20026;SDS011;10174;42.688;23.344;2023-05-07T12:57:49;7.53;;;4.70;;
20026;SDS011;10174;42.688;23.344;2023-05-07T13:00:16;14.93;;;6.40;;
20026;SDS011;10174;42.688;23.344;2023-05-07T13:02:42;16.23;;;4.50;;
20026;SDS011;10174;42.688;23.344;2023-05-07T13:05:12;6.72;;;3.50;;
20026;SDS011;10174;42.688;23.344;2023-05-07T13:07:37;3.80;;;2.95;;
20026;SDS011;10174;42.688;23.344;2023-05-07T13:10:03;5.07;;;2.83;;
20026;SDS011;10174;42.688;23.344;2023-05-07T13:12:29;10.60;;;2.97;;
20026;SDS011;10174;42.688;23.344;2023-05-07T13:14:55;5.38;;;3.10;;
20026;SDS011;10174;42.688;23.344;2023-05-07T13:17:20;11.13;;;3.65;;
20026;SDS011;10174;42.688;23.344;2023-05-07T13:19:46;5.70;;;3.13;;
20026;SDS011;10174;42.688;23.344;2023-05-07T13:22:11;7.97;;;3.35;;
20026;SDS011;10174;42.688;23.344;2023-05-07T13:24:36;9.88;;;3.90;;
20026;SDS011;10174;42.688;23.344;2023-05-07T13:27:02;9.10;;;3.78;;
20026;SDS011;10174;42.688;23.344;2023-05-07T13:29:28;6.43;;;2.95;;
20026;SDS011;10174;42.688;23.344;2023-05-07T13:31:56;8.70;;;3.40;;
20026;SDS011;10174;42.688;23.344;2023-05-07T13:34:21;8.95;;;3.50;;
20026;SDS011;10174;42.688;23.344;2023-05-07T13:36:47;8.85;;;3.00;;
20026;SDS011;10174;42.688;23.344;2023-05-07T13:39:12;5.72;;;3.13;;
20026;SDS011;10174;42.688;23.344;2023-05-07T13:41:37;11.65;;;3.35;;
20026;SDS011;10174;42.688;23.344;2023-05-07T13:44:03;5.30;;;3.50;;
20026;SDS011;10174;42.688;23.344;2023-05-07T13:46:29;6.90;;;3.10;;
20026;SDS011;10174;42.688;23.344;2023-05-07T13:48:54;5.72;;;3.50;;
20026;SDS011;10174;42.688;23.344;2023-05-07T13:51:20;6.03;;;3.25;;
20026;SDS011;10174;42.688;23.344;2023-05-07T13:53:46;5.32;;;3.47;;
20026;SDS011;10174;42.688;23.344;2023-05-07T13:56:12;6.22;;;3.65;;
20026;SDS011;10174;42.688;23.344;2023-05-07T13:58:37;3.88;;;3.20;;
20026;SDS011;10174;42.688;23.344;2023-05-07T14:01:03;4.78;;;3.08;;
20026;SDS011;10174;42.688;23.344;2023-05-07T14:03:28;3.95;;;3.20;;
20026;SDS011;10174;42.688;23.344;2023-05-07T14:05:54;6.25;;;3.50;;
20026;SDS011;10174;42.688;23.344;2023-05-07T14:08:20;7.88;;;3.42;;
20026;SDS011;10174;42.688;23.344;2023-05-07T14:10:46;5.63;;;3.42;;
20026;SDS011;10174;42.688;23.344;2023-05-07T14:13:11;5.70;;;3.20;;
20026;SDS011;10174;42.688;23.344;2023-05-07T14:15:37;6.32;;;3.80;;
20026;SDS011;10174;42.688;23.344;2023-05-07T14:18:02;6.80;;;3.90;;
20026;SDS011;10174;42.688;23.344;2023-05-07T14:20:28;8.07;;;3.83;;
20026;SDS011;10174;42.688;23.344;2023-05-07T14:22:53;9.48;;;3.22;;
20026;SDS011;10174;42.688;23.344;2023-05-07T14:25:18;9.30;;;3.40;;
20026;SDS011;10174;42.688;23.344;2023-05-07T14:27:44;4.38;;;3.25;;